MRPVMRLM

Guest
Details From MRPV - TOBIAS BOLANOS INTL
To MRLM - LIMON INTL
Flight Number -
Tags decoded
Created
Modified
Stats Distance 72 nm / 132 km
Max Altitude 0 ft / 0 m
Waypoints 5
Social Downloads 0
Likes 0
Share VATSIM

Download

Looking for another format? Having issues loading an existing format? Contact us
Advertisement - Login to hide

Notes

Requested: MRPV G440 PARAI CLARA B690 LIO MRLM Unmatched points: G440

Route

MRPV PARAI CLARA B690 LIO MRLM

ID Type Via Altitude Latitude Longitude Leg Dist Tot Dist Heading (true) Name
O MRPV APT - 0 ft / 0 m 9.95705˚ -84.13980˚ - 0 nm - TOBIAS BOLANOS INTL
PARAI FIX - 0 ft / 0 m 9.84667˚ -83.83667˚ 19 nm 19 nm 110° / 110° -
CLARA FIX - 0 ft / 0 m 9.97544˚ -83.72392˚ 10 nm 29 nm 41° / 41° -
LIO NDB B690 (AWY-LO) 0 ft / 0 m 9.97667˚ -83.03278˚ 40 nm 70 nm 90° / 90° LIMON NDB
O MRLM APT - 0 ft / 0 m 9.95796˚ -83.02201˚ 1 nm 71 nm 150° / 150° LIMON INTL

Altitude Profile

Advertisement - Login to hide

MRPV

Details ICAO MRPV (SYQ)
Name TOBIAS BOLANOS INTL
Region Costa Rica
Timezone America/Costa_Rica (UTC-6.0)
Stats Elevation 3,287 ft / 1,002 m (AMSL)
Location 9.957052° -84.139797°
Runways 1
Magnetic Variation 1.754° W

METAR

Not found

TAF

MRPV 160500Z 1606/1706 10012KT 9999 FEW045 TX28/1619Z TN18/1609Z TEMPO 1609/1618 08012G22KT

Decode

Departure Runways

ID Width Length Bearing (true) Bearing (mag) Surface Threshold Offset Overrun Length
09 60 ft / 18 m 5,304 ft / 1,617 m 95.09° 96.84° Asphalt 200 ft / 61 m 0 ft / 0 m
27 60 ft / 18 m 5,304 ft / 1,617 m 275.10° 276.85° Asphalt 0 ft / 0 m 0 ft / 0 m

MRLM

Details ICAO MRLM (LIO)
Name LIMON INTL
Region Costa Rica
Timezone Unknown (UTC+0.0)
Stats Elevation 7 ft / 2 m (AMSL)
Location 9.957959° -83.022006°
Runways 1
Magnetic Variation 2.425° W

METAR

Not found

TAF

TAF MRLM 160500Z 1606/1706 33006KT 9999 FEW025 BKN100 TX28/1619Z TN20/1611Z TEMPO 1606/1614 25007KT RA SCT020 BECMG 1617/1620 06007KT

Decode

Destination Runways

ID Width Length Bearing (true) Bearing (mag) Surface Threshold Offset Overrun Length
14 98 ft / 30 m 5,897 ft / 1,797 m 146.50° 148.92° Asphalt 0 ft / 0 m 0 ft / 0 m
32 98 ft / 30 m 5,897 ft / 1,797 m 326.50° 328.92° Asphalt 0 ft / 0 m 0 ft / 0 m

Popular Alternatives